sensor_id;sensor_type;location;lat;lon;timestamp;P1;durP1;ratioP1;P2;durP2;ratioP2
11962;SDS011;62678;52.130;5.584;2024-01-30T00:00:01;24.83;;;17.55;;
11962;SDS011;62678;52.130;5.584;2024-01-30T00:02:29;25.70;;;16.67;;
11962;SDS011;62678;52.130;5.584;2024-01-30T00:04:57;20.83;;;16.17;;
11962;SDS011;62678;52.130;5.584;2024-01-30T00:07:24;24.60;;;16.98;;
11962;SDS011;62678;52.130;5.584;2024-01-30T00:09:51;20.50;;;16.35;;
11962;SDS011;62678;52.130;5.584;2024-01-30T00:12:19;23.23;;;16.25;;
11962;SDS011;62678;52.130;5.584;2024-01-30T00:14:48;23.77;;;17.38;;
11962;SDS011;62678;52.130;5.584;2024-01-30T00:17:16;21.25;;;16.42;;
11962;SDS011;62678;52.130;5.584;2024-01-30T00:19:44;23.42;;;16.83;;
11962;SDS011;62678;52.130;5.584;2024-01-30T00:22:11;23.70;;;17.52;;
11962;SDS011;62678;52.130;5.584;2024-01-30T00:24:39;23.27;;;17.15;;
11962;SDS011;62678;52.130;5.584;2024-01-30T00:27:07;21.15;;;16.75;;
11962;SDS011;62678;52.130;5.584;2024-01-30T00:29:34;20.42;;;16.75;;
11962;SDS011;62678;52.130;5.584;2024-01-30T00:32:03;21.25;;;16.88;;
11962;SDS011;62678;52.130;5.584;2024-01-30T00:34:31;22.10;;;16.98;;
11962;SDS011;62678;52.130;5.584;2024-01-30T00:36:58;24.35;;;17.58;;
11962;SDS011;62678;52.130;5.584;2024-01-30T00:39:25;21.23;;;17.05;;
11962;SDS011;62678;52.130;5.584;2024-01-30T00:41:53;23.33;;;17.35;;
11962;SDS011;62678;52.130;5.584;2024-01-30T00:44:20;21.95;;;17.25;;
11962;SDS011;62678;52.130;5.584;2024-01-30T00:46:48;25.05;;;18.83;;
11962;SDS011;62678;52.130;5.584;2024-01-30T00:49:17;22.55;;;18.10;;
11962;SDS011;62678;52.130;5.584;2024-01-30T00:51:45;24.92;;;18.98;;
11962;SDS011;62678;52.130;5.584;2024-01-30T00:54:12;25.80;;;17.50;;
11962;SDS011;62678;52.130;5.584;2024-01-30T00:56:40;26.15;;;18.95;;
11962;SDS011;62678;52.130;5.584;2024-01-30T00:59:07;23.55;;;17.63;;
11962;SDS011;62678;52.130;5.584;2024-01-30T01:01:35;23.27;;;17.85;;
11962;SDS011;62678;52.130;5.584;2024-01-30T01:04:02;25.42;;;18.88;;
11962;SDS011;62678;52.130;5.584;2024-01-30T01:06:31;24.58;;;19.17;;
11962;SDS011;62678;52.130;5.584;2024-01-30T01:08:58;24.73;;;18.60;;
11962;SDS011;62678;52.130;5.584;2024-01-30T01:11:26;26.85;;;19.13;;
11962;SDS011;62678;52.130;5.584;2024-01-30T01:13:53;28.23;;;18.73;;
11962;SDS011;62678;52.130;5.584;2024-01-30T01:16:21;26.98;;;19.02;;
11962;SDS011;62678;52.130;5.584;2024-01-30T01:18:49;23.00;;;17.95;;
11962;SDS011;62678;52.130;5.584;2024-01-30T01:21:17;24.98;;;19.13;;
11962;SDS011;62678;52.130;5.584;2024-01-30T01:23:45;24.48;;;18.00;;
11962;SDS011;62678;52.130;5.584;2024-01-30T01:26:13;25.40;;;18.83;;
11962;SDS011;62678;52.130;5.584;2024-01-30T01:28:40;23.80;;;17.65;;
11962;SDS011;62678;52.130;5.584;2024-01-30T01:31:08;24.02;;;17.83;;
11962;SDS011;62678;52.130;5.584;2024-01-30T01:33:35;24.98;;;18.13;;
11962;SDS011;62678;52.130;5.584;2024-01-30T01:36:03;25.52;;;18.75;;
11962;SDS011;62678;52.130;5.584;2024-01-30T01:38:31;24.13;;;18.15;;
11962;SDS011;62678;52.130;5.584;2024-01-30T01:41:00;26.95;;;18.80;;
11962;SDS011;62678;52.130;5.584;2024-01-30T01:43:27;22.90;;;18.45;;
11962;SDS011;62678;52.130;5.584;2024-01-30T01:45:55;24.85;;;17.35;;
11962;SDS011;62678;52.130;5.584;2024-01-30T01:48:22;22.55;;;17.25;;
11962;SDS011;62678;52.130;5.584;2024-01-30T01:50:49;27.30;;;18.05;;
11962;SDS011;62678;52.130;5.584;2024-01-30T01:53:17;23.70;;;17.08;;
11962;SDS011;62678;52.130;5.584;2024-01-30T01:55:45;21.00;;;17.48;;
11962;SDS011;62678;52.130;5.584;2024-01-30T01:58:14;22.00;;;17.08;;
11962;SDS011;62678;52.130;5.584;2024-01-30T02:00:43;23.00;;;15.75;;
11962;SDS011;62678;52.130;5.584;2024-01-30T02:03:10;22.75;;;16.95;;
11962;SDS011;62678;52.130;5.584;2024-01-30T02:05:38;22.05;;;16.00;;
11962;SDS011;62678;52.130;5.584;2024-01-30T02:08:06;22.77;;;15.93;;
11962;SDS011;62678;52.130;5.584;2024-01-30T02:10:33;22.25;;;16.63;;
11962;SDS011;62678;52.130;5.584;2024-01-30T02:13:01;21.73;;;16.83;;
11962;SDS011;62678;52.130;5.584;2024-01-30T02:15:31;22.77;;;16.42;;
11962;SDS011;62678;52.130;5.584;2024-01-30T02:17:58;22.05;;;16.58;;
11962;SDS011;62678;52.130;5.584;2024-01-30T02:20:26;21.60;;;16.02;;
11962;SDS011;62678;52.130;5.584;2024-01-30T02:22:56;20.42;;;15.40;;
11962;SDS011;62678;52.130;5.584;2024-01-30T02:25:30;22.58;;;15.68;;
11962;SDS011;62678;52.130;5.584;2024-01-30T02:27:58;20.88;;;15.57;;
11962;SDS011;62678;52.130;5.584;2024-01-30T02:30:25;19.50;;;15.38;;
11962;SDS011;62678;52.130;5.584;2024-01-30T02:32:52;19.13;;;14.73;;
11962;SDS011;62678;52.130;5.584;2024-01-30T02:35:20;20.60;;;15.50;;
11962;SDS011;62678;52.130;5.584;2024-01-30T02:37:48;22.13;;;14.93;;
11962;SDS011;62678;52.130;5.584;2024-01-30T02:40:16;20.35;;;14.02;;
11962;SDS011;62678;52.130;5.584;2024-01-30T02:42:44;22.13;;;15.10;;
11962;SDS011;62678;52.130;5.584;2024-01-30T02:45:12;21.73;;;15.00;;
11962;SDS011;62678;52.130;5.584;2024-01-30T02:47:40;21.45;;;14.90;;
11962;SDS011;62678;52.130;5.584;2024-01-30T02:50:08;18.05;;;14.50;;
11962;SDS011;62678;52.130;5.584;2024-01-30T02:52:35;19.70;;;14.35;;
11962;SDS011;62678;52.130;5.584;2024-01-30T02:55:03;19.05;;;14.98;;
11962;SDS011;62678;52.130;5.584;2024-01-30T02:57:32;18.13;;;13.77;;
11962;SDS011;62678;52.130;5.584;2024-01-30T03:00:00;17.77;;;13.98;;
11962;SDS011;62678;52.130;5.584;2024-01-30T03:02:29;19.42;;;14.48;;
11962;SDS011;62678;52.130;5.584;2024-01-30T03:04:56;18.52;;;13.95;;
11962;SDS011;62678;52.130;5.584;2024-01-30T03:07:24;20.45;;;14.43;;
11962;SDS011;62678;52.130;5.584;2024-01-30T03:09:51;18.55;;;14.18;;
11962;SDS011;62678;52.130;5.584;2024-01-30T03:12:20;18.00;;;13.55;;
11962;SDS011;62678;52.130;5.584;2024-01-30T03:14:50;20.40;;;14.25;;
11962;SDS011;62678;52.130;5.584;2024-01-30T03:17:18;18.65;;;13.65;;
11962;SDS011;62678;52.130;5.584;2024-01-30T03:19:45;16.92;;;13.38;;
11962;SDS011;62678;52.130;5.584;2024-01-30T03:22:13;17.30;;;13.32;;
11962;SDS011;62678;52.130;5.584;2024-01-30T03:24:40;19.13;;;13.85;;
11962;SDS011;62678;52.130;5.584;2024-01-30T03:27:07;16.05;;;13.52;;
11962;SDS011;62678;52.130;5.584;2024-01-30T03:29:35;17.88;;;13.30;;
11962;SDS011;62678;52.130;5.584;2024-01-30T03:32:04;18.05;;;14.20;;
11962;SDS011;62678;52.130;5.584;2024-01-30T03:34:31;17.45;;;13.20;;
11962;SDS011;62678;52.130;5.584;2024-01-30T03:36:59;17.88;;;13.68;;
11962;SDS011;62678;52.130;5.584;2024-01-30T03:39:26;20.60;;;13.90;;
11962;SDS011;62678;52.130;5.584;2024-01-30T03:41:54;18.27;;;13.60;;
11962;SDS011;62678;52.130;5.584;2024-01-30T03:44:21;18.08;;;13.95;;
11962;SDS011;62678;52.130;5.584;2024-01-30T03:46:48;18.25;;;13.35;;
11962;SDS011;62678;52.130;5.584;2024-01-30T03:49:17;16.88;;;13.15;;
11962;SDS011;62678;52.130;5.584;2024-01-30T03:51:44;17.40;;;13.73;;
11962;SDS011;62678;52.130;5.584;2024-01-30T03:54:12;17.25;;;13.38;;
11962;SDS011;62678;52.130;5.584;2024-01-30T03:56:39;18.98;;;13.75;;
11962;SDS011;62678;52.130;5.584;2024-01-30T03:59:06;17.02;;;12.50;;
11962;SDS011;62678;52.130;5.584;2024-01-30T04:01:34;15.90;;;12.77;;
11962;SDS011;62678;52.130;5.584;2024-01-30T04:04:01;15.73;;;12.60;;
11962;SDS011;62678;52.130;5.584;2024-01-30T04:06:29;15.50;;;12.32;;
11962;SDS011;62678;52.130;5.584;2024-01-30T04:08:56;18.58;;;12.98;;
11962;SDS011;62678;52.130;5.584;2024-01-30T04:11:23;17.00;;;12.80;;
11962;SDS011;62678;52.130;5.584;2024-01-30T04:13:50;18.92;;;12.75;;
11962;SDS011;62678;52.130;5.584;2024-01-30T04:16:21;18.40;;;12.80;;
11962;SDS011;62678;52.130;5.584;2024-01-30T04:18:48;15.32;;;12.35;;
11962;SDS011;62678;52.130;5.584;2024-01-30T04:21:15;17.13;;;12.40;;
11962;SDS011;62678;52.130;5.584;2024-01-30T04:23:44;17.20;;;12.05;;
11962;SDS011;62678;52.130;5.584;2024-01-30T04:26:12;16.35;;;12.32;;
11962;SDS011;62678;52.130;5.584;2024-01-30T04:28:40;15.10;;;11.25;;
11962;SDS011;62678;52.130;5.584;2024-01-30T04:31:08;17.35;;;12.63;;
11962;SDS011;62678;52.130;5.584;2024-01-30T04:33:35;16.55;;;11.93;;
11962;SDS011;62678;52.130;5.584;2024-01-30T04:36:02;18.67;;;12.52;;
11962;SDS011;62678;52.130;5.584;2024-01-30T04:38:30;15.98;;;12.10;;
11962;SDS011;62678;52.130;5.584;2024-01-30T04:40:58;17.65;;;11.98;;
11962;SDS011;62678;52.130;5.584;2024-01-30T04:43:25;15.65;;;11.23;;
11962;SDS011;62678;52.130;5.584;2024-01-30T04:45:53;14.27;;;11.13;;
11962;SDS011;62678;52.130;5.584;2024-01-30T04:48:20;15.23;;;11.45;;
11962;SDS011;62678;52.130;5.584;2024-01-30T04:50:47;16.27;;;12.20;;
11962;SDS011;62678;52.130;5.584;2024-01-30T04:53:14;13.60;;;11.80;;
11962;SDS011;62678;52.130;5.584;2024-01-30T04:55:41;17.90;;;12.40;;
11962;SDS011;62678;52.130;5.584;2024-01-30T04:58:10;16.70;;;11.90;;
11962;SDS011;62678;52.130;5.584;2024-01-30T05:00:37;15.38;;;11.63;;
11962;SDS011;62678;52.130;5.584;2024-01-30T05:03:04;18.13;;;12.27;;
11962;SDS011;62678;52.130;5.584;2024-01-30T05:05:31;20.90;;;11.98;;
11962;SDS011;62678;52.130;5.584;2024-01-30T05:07:58;15.70;;;12.10;;
11962;SDS011;62678;52.130;5.584;2024-01-30T05:10:25;14.40;;;11.93;;
11962;SDS011;62678;52.130;5.584;2024-01-30T05:12:53;16.92;;;12.07;;
11962;SDS011;62678;52.130;5.584;2024-01-30T05:15:22;14.55;;;11.38;;
11962;SDS011;62678;52.130;5.584;2024-01-30T05:17:49;16.00;;;11.85;;
11962;SDS011;62678;52.130;5.584;2024-01-30T05:20:16;17.75;;;11.82;;
11962;SDS011;62678;52.130;5.584;2024-01-30T05:22:43;20.83;;;12.00;;
11962;SDS011;62678;52.130;5.584;2024-01-30T05:25:11;15.98;;;12.05;;
11962;SDS011;62678;52.130;5.584;2024-01-30T05:27:38;16.95;;;12.02;;
11962;SDS011;62678;52.130;5.584;2024-01-30T05:30:05;15.48;;;12.15;;
11962;SDS011;62678;52.130;5.584;2024-01-30T05:32:34;17.23;;;11.68;;
11962;SDS011;62678;52.130;5.584;2024-01-30T05:35:01;14.05;;;11.90;;
11962;SDS011;62678;52.130;5.584;2024-01-30T05:37:29;14.25;;;11.73;;
11962;SDS011;62678;52.130;5.584;2024-01-30T05:39:56;14.75;;;11.73;;
11962;SDS011;62678;52.130;5.584;2024-01-30T05:42:23;14.45;;;11.52;;
11962;SDS011;62678;52.130;5.584;2024-01-30T05:44:50;15.63;;;12.27;;
11962;SDS011;62678;52.130;5.584;2024-01-30T05:47:18;16.45;;;11.63;;
11962;SDS011;62678;52.130;5.584;2024-01-30T05:49:46;15.65;;;11.73;;
11962;SDS011;62678;52.130;5.584;2024-01-30T05:52:13;15.27;;;11.85;;
11962;SDS011;62678;52.130;5.584;2024-01-30T05:54:41;13.70;;;11.20;;
11962;SDS011;62678;52.130;5.584;2024-01-30T05:57:08;16.55;;;11.50;;
11962;SDS011;62678;52.130;5.584;2024-01-30T05:59:36;16.17;;;12.10;;
11962;SDS011;62678;52.130;5.584;2024-01-30T06:02:03;15.73;;;12.15;;
11962;SDS011;62678;52.130;5.584;2024-01-30T06:04:31;14.32;;;11.50;;
11962;SDS011;62678;52.130;5.584;2024-01-30T06:07:00;13.43;;;11.40;;
11962;SDS011;62678;52.130;5.584;2024-01-30T06:09:28;12.95;;;11.18;;
11962;SDS011;62678;52.130;5.584;2024-01-30T06:11:55;15.52;;;11.45;;
11962;SDS011;62678;52.130;5.584;2024-01-30T06:14:22;15.32;;;11.25;;
11962;SDS011;62678;52.130;5.584;2024-01-30T06:16:50;15.25;;;11.13;;
11962;SDS011;62678;52.130;5.584;2024-01-30T06:19:17;13.95;;;10.95;;
11962;SDS011;62678;52.130;5.584;2024-01-30T06:21:44;14.85;;;11.00;;
11962;SDS011;62678;52.130;5.584;2024-01-30T06:24:13;15.93;;;11.23;;
11962;SDS011;62678;52.130;5.584;2024-01-30T06:26:40;15.15;;;11.35;;
11962;SDS011;62678;52.130;5.584;2024-01-30T06:29:08;13.38;;;10.95;;
11962;SDS011;62678;52.130;5.584;2024-01-30T06:31:39;15.02;;;11.25;;
11962;SDS011;62678;52.130;5.584;2024-01-30T06:34:07;14.13;;;10.70;;
11962;SDS011;62678;52.130;5.584;2024-01-30T06:36:36;16.13;;;11.23;;
11962;SDS011;62678;52.130;5.584;2024-01-30T06:39:03;15.00;;;11.25;;
11962;SDS011;62678;52.130;5.584;2024-01-30T06:41:33;17.13;;;10.93;;
11962;SDS011;62678;52.130;5.584;2024-01-30T06:44:02;15.63;;;11.15;;
11962;SDS011;62678;52.130;5.584;2024-01-30T06:46:31;17.73;;;11.50;;
11962;SDS011;62678;52.130;5.584;2024-01-30T06:48:59;16.67;;;11.35;;
11962;SDS011;62678;52.130;5.584;2024-01-30T06:51:26;14.80;;;11.27;;
11962;SDS011;62678;52.130;5.584;2024-01-30T06:53:53;14.70;;;11.30;;
11962;SDS011;62678;52.130;5.584;2024-01-30T06:56:21;16.20;;;11.90;;
11962;SDS011;62678;52.130;5.584;2024-01-30T06:58:50;15.00;;;11.00;;
11962;SDS011;62678;52.130;5.584;2024-01-30T07:01:17;17.00;;;11.15;;
11962;SDS011;62678;52.130;5.584;2024-01-30T07:03:44;14.57;;;10.60;;
11962;SDS011;62678;52.130;5.584;2024-01-30T07:06:12;14.30;;;10.07;;
11962;SDS011;62678;52.130;5.584;2024-01-30T07:08:40;16.00;;;10.52;;
11962;SDS011;62678;52.130;5.584;2024-01-30T07:11:08;14.80;;;10.63;;
11962;SDS011;62678;52.130;5.584;2024-01-30T07:13:37;14.15;;;10.32;;
11962;SDS011;62678;52.130;5.584;2024-01-30T07:16:06;13.77;;;10.80;;
11962;SDS011;62678;52.130;5.584;2024-01-30T07:18:33;14.57;;;10.85;;
11962;SDS011;62678;52.130;5.584;2024-01-30T07:21:01;15.13;;;10.70;;
11962;SDS011;62678;52.130;5.584;2024-01-30T07:23:29;17.35;;;11.10;;
11962;SDS011;62678;52.130;5.584;2024-01-30T07:25:57;12.90;;;10.32;;
11962;SDS011;62678;52.130;5.584;2024-01-30T07:28:24;14.63;;;10.75;;
11962;SDS011;62678;52.130;5.584;2024-01-30T07:30:51;15.80;;;10.70;;
11962;SDS011;62678;52.130;5.584;2024-01-30T07:33:21;17.08;;;10.60;;
11962;SDS011;62678;52.130;5.584;2024-01-30T07:35:48;15.25;;;10.48;;
11962;SDS011;62678;52.130;5.584;2024-01-30T07:38:16;15.38;;;11.00;;
11962;SDS011;62678;52.130;5.584;2024-01-30T07:40:43;14.20;;;9.88;;
11962;SDS011;62678;52.130;5.584;2024-01-30T07:43:11;12.73;;;9.70;;
11962;SDS011;62678;52.130;5.584;2024-01-30T07:45:38;15.75;;;10.02;;
11962;SDS011;62678;52.130;5.584;2024-01-30T07:48:06;16.67;;;10.82;;
11962;SDS011;62678;52.130;5.584;2024-01-30T07:50:35;22.35;;;15.15;;
11962;SDS011;62678;52.130;5.584;2024-01-30T07:53:02;47.42;;;28.92;;
11962;SDS011;62678;52.130;5.584;2024-01-30T07:55:29;30.13;;;22.35;;
11962;SDS011;62678;52.130;5.584;2024-01-30T07:57:58;26.13;;;18.27;;
11962;SDS011;62678;52.130;5.584;2024-01-30T08:00:25;24.63;;;16.83;;
11962;SDS011;62678;52.130;5.584;2024-01-30T08:02:54;15.50;;;10.93;;
11962;SDS011;62678;52.130;5.584;2024-01-30T08:05:21;13.73;;;10.65;;
11962;SDS011;62678;52.130;5.584;2024-01-30T08:07:50;17.73;;;11.43;;
11962;SDS011;62678;52.130;5.584;2024-01-30T08:10:18;16.13;;;9.88;;
11962;SDS011;62678;52.130;5.584;2024-01-30T08:12:45;17.40;;;10.20;;
11962;SDS011;62678;52.130;5.584;2024-01-30T08:15:13;15.55;;;11.10;;
11962;SDS011;62678;52.130;5.584;2024-01-30T08:17:40;17.23;;;11.48;;
11962;SDS011;62678;52.130;5.584;2024-01-30T08:20:08;23.35;;;16.58;;
11962;SDS011;62678;52.130;5.584;2024-01-30T08:22:37;21.83;;;15.18;;
11962;SDS011;62678;52.130;5.584;2024-01-30T08:25:07;26.00;;;16.48;;
11962;SDS011;62678;52.130;5.584;2024-01-30T08:27:36;24.35;;;16.38;;
11962;SDS011;62678;52.130;5.584;2024-01-30T08:30:04;23.60;;;15.07;;
11962;SDS011;62678;52.130;5.584;2024-01-30T08:32:31;17.83;;;13.05;;
11962;SDS011;62678;52.130;5.584;2024-01-30T08:34:59;18.70;;;13.52;;
11962;SDS011;62678;52.130;5.584;2024-01-30T08:37:28;21.33;;;13.77;;
11962;SDS011;62678;52.130;5.584;2024-01-30T08:39:56;17.00;;;11.68;;
11962;SDS011;62678;52.130;5.584;2024-01-30T08:42:24;18.50;;;12.02;;
11962;SDS011;62678;52.130;5.584;2024-01-30T08:44:52;21.50;;;13.52;;
11962;SDS011;62678;52.130;5.584;2024-01-30T08:47:20;16.15;;;12.05;;
11962;SDS011;62678;52.130;5.584;2024-01-30T08:49:47;14.35;;;10.35;;
11962;SDS011;62678;52.130;5.584;2024-01-30T08:52:15;21.23;;;14.63;;
11962;SDS011;62678;52.130;5.584;2024-01-30T08:54:42;20.30;;;12.27;;
11962;SDS011;62678;52.130;5.584;2024-01-30T08:57:09;27.58;;;15.30;;
11962;SDS011;62678;52.130;5.584;2024-01-30T08:59:38;19.42;;;11.48;;
11962;SDS011;62678;52.130;5.584;2024-01-30T09:02:05;27.08;;;14.02;;
11962;SDS011;62678;52.130;5.584;2024-01-30T09:04:32;30.73;;;16.13;;
11962;SDS011;62678;52.130;5.584;2024-01-30T09:06:59;33.22;;;18.95;;
11962;SDS011;62678;52.130;5.584;2024-01-30T09:09:26;33.55;;;22.05;;
11962;SDS011;62678;52.130;5.584;2024-01-30T09:11:54;34.70;;;23.60;;
11962;SDS011;62678;52.130;5.584;2024-01-30T09:14:21;24.08;;;16.38;;
11962;SDS011;62678;52.130;5.584;2024-01-30T09:16:49;26.77;;;17.38;;
11962;SDS011;62678;52.130;5.584;2024-01-30T09:19:16;22.67;;;16.00;;
11962;SDS011;62678;52.130;5.584;2024-01-30T09:21:43;20.42;;;14.10;;
11962;SDS011;62678;52.130;5.584;2024-01-30T09:24:11;24.25;;;15.95;;
11962;SDS011;62678;52.130;5.584;2024-01-30T09:26:38;14.80;;;10.95;;
11962;SDS011;62678;52.130;5.584;2024-01-30T09:29:05;20.27;;;12.05;;
11962;SDS011;62678;52.130;5.584;2024-01-30T09:31:32;17.25;;;11.32;;
11962;SDS011;62678;52.130;5.584;2024-01-30T09:34:00;16.65;;;11.18;;
11962;SDS011;62678;52.130;5.584;2024-01-30T09:36:27;18.45;;;11.32;;
11962;SDS011;62678;52.130;5.584;2024-01-30T09:38:55;16.67;;;11.70;;
11962;SDS011;62678;52.130;5.584;2024-01-30T09:41:22;19.80;;;13.52;;
11962;SDS011;62678;52.130;5.584;2024-01-30T09:43:51;19.17;;;13.93;;
11962;SDS011;62678;52.130;5.584;2024-01-30T09:46:18;19.38;;;12.30;;
11962;SDS011;62678;52.130;5.584;2024-01-30T09:48:47;16.20;;;11.93;;
11962;SDS011;62678;52.130;5.584;2024-01-30T09:51:16;19.88;;;11.80;;
11962;SDS011;62678;52.130;5.584;2024-01-30T09:53:43;17.75;;;11.18;;
11962;SDS011;62678;52.130;5.584;2024-01-30T09:56:12;16.45;;;9.80;;
11962;SDS011;62678;52.130;5.584;2024-01-30T09:58:39;15.63;;;10.85;;
11962;SDS011;62678;52.130;5.584;2024-01-30T10:01:07;17.63;;;11.00;;
11962;SDS011;62678;52.130;5.584;2024-01-30T10:03:34;17.92;;;10.80;;
11962;SDS011;62678;52.130;5.584;2024-01-30T10:06:01;19.13;;;11.48;;
11962;SDS011;62678;52.130;5.584;2024-01-30T10:08:30;17.45;;;10.25;;
11962;SDS011;62678;52.130;5.584;2024-01-30T10:10:57;21.45;;;10.40;;
11962;SDS011;62678;52.130;5.584;2024-01-30T10:13:24;17.00;;;10.05;;
11962;SDS011;62678;52.130;5.584;2024-01-30T10:15:52;20.20;;;10.25;;
11962;SDS011;62678;52.130;5.584;2024-01-30T10:18:20;16.88;;;8.93;;
11962;SDS011;62678;52.130;5.584;2024-01-30T10:20:47;15.98;;;8.85;;
11962;SDS011;62678;52.130;5.584;2024-01-30T10:23:14;14.48;;;9.02;;
11962;SDS011;62678;52.130;5.584;2024-01-30T10:25:43;14.75;;;8.98;;
11962;SDS011;62678;52.130;5.584;2024-01-30T10:28:10;17.05;;;8.68;;
11962;SDS011;62678;52.130;5.584;2024-01-30T10:30:38;15.13;;;8.18;;
11962;SDS011;62678;52.130;5.584;2024-01-30T10:33:05;15.00;;;8.75;;
11962;SDS011;62678;52.130;5.584;2024-01-30T10:35:32;12.60;;;8.88;;
11962;SDS011;62678;52.130;5.584;2024-01-30T10:37:59;14.38;;;8.73;;
11962;SDS011;62678;52.130;5.584;2024-01-30T10:40:28;14.93;;;7.82;;
11962;SDS011;62678;52.130;5.584;2024-01-30T10:42:56;13.98;;;8.35;;
11962;SDS011;62678;52.130;5.584;2024-01-30T10:45:26;13.45;;;8.25;;
11962;SDS011;62678;52.130;5.584;2024-01-30T10:47:56;14.77;;;8.50;;
11962;SDS011;62678;52.130;5.584;2024-01-30T10:50:25;14.25;;;7.70;;
11962;SDS011;62678;52.130;5.584;2024-01-30T10:52:53;12.98;;;7.80;;
11962;SDS011;62678;52.130;5.584;2024-01-30T10:55:20;13.65;;;8.00;;
11962;SDS011;62678;52.130;5.584;2024-01-30T10:57:48;13.52;;;8.10;;
11962;SDS011;62678;52.130;5.584;2024-01-30T11:00:18;17.42;;;8.35;;
11962;SDS011;62678;52.130;5.584;2024-01-30T11:02:48;13.93;;;8.38;;
11962;SDS011;62678;52.130;5.584;2024-01-30T11:05:22;13.80;;;7.90;;
11962;SDS011;62678;52.130;5.584;2024-01-30T11:07:51;14.88;;;8.30;;
11962;SDS011;62678;52.130;5.584;2024-01-30T11:10:18;13.55;;;7.85;;
11962;SDS011;62678;52.130;5.584;2024-01-30T11:12:46;12.45;;;8.30;;
11962;SDS011;62678;52.130;5.584;2024-01-30T11:15:15;13.07;;;8.80;;
11962;SDS011;62678;52.130;5.584;2024-01-30T11:17:45;14.13;;;7.75;;
11962;SDS011;62678;52.130;5.584;2024-01-30T11:20:14;14.68;;;8.45;;
11962;SDS011;62678;52.130;5.584;2024-01-30T11:22:42;11.98;;;8.57;;
11962;SDS011;62678;52.130;5.584;2024-01-30T11:25:13;12.15;;;7.65;;
11962;SDS011;62678;52.130;5.584;2024-01-30T11:27:41;10.90;;;6.95;;
11962;SDS011;62678;52.130;5.584;2024-01-30T11:30:08;13.00;;;7.20;;
11962;SDS011;62678;52.130;5.584;2024-01-30T11:32:36;13.80;;;7.25;;
11962;SDS011;62678;52.130;5.584;2024-01-30T11:35:05;14.80;;;6.75;;
11962;SDS011;62678;52.130;5.584;2024-01-30T11:37:35;11.80;;;7.43;;
11962;SDS011;62678;52.130;5.584;2024-01-30T11:40:04;12.98;;;7.30;;
11962;SDS011;62678;52.130;5.584;2024-01-30T11:42:31;12.38;;;5.97;;
11962;SDS011;62678;52.130;5.584;2024-01-30T11:44:59;10.35;;;5.03;;
11962;SDS011;62678;52.130;5.584;2024-01-30T11:47:28;10.30;;;5.20;;
11962;SDS011;62678;52.130;5.584;2024-01-30T11:49:55;10.15;;;4.95;;
11962;SDS011;62678;52.130;5.584;2024-01-30T11:52:24;11.30;;;5.63;;
11962;SDS011;62678;52.130;5.584;2024-01-30T11:54:51;10.20;;;5.57;;
11962;SDS011;62678;52.130;5.584;2024-01-30T11:57:18;12.57;;;6.07;;
11962;SDS011;62678;52.130;5.584;2024-01-30T11:59:45;8.48;;;4.95;;
11962;SDS011;62678;52.130;5.584;2024-01-30T12:02:15;12.85;;;5.25;;
11962;SDS011;62678;52.130;5.584;2024-01-30T12:04:43;7.47;;;4.30;;
11962;SDS011;62678;52.130;5.584;2024-01-30T12:07:10;9.45;;;4.10;;
11962;SDS011;62678;52.130;5.584;2024-01-30T12:09:39;9.90;;;3.72;;
11962;SDS011;62678;52.130;5.584;2024-01-30T12:12:06;6.90;;;3.58;;
11962;SDS011;62678;52.130;5.584;2024-01-30T12:14:37;9.05;;;3.55;;
11962;SDS011;62678;52.130;5.584;2024-01-30T12:17:04;8.55;;;3.35;;
11962;SDS011;62678;52.130;5.584;2024-01-30T12:19:32;5.57;;;2.75;;
11962;SDS011;62678;52.130;5.584;2024-01-30T12:22:00;5.93;;;2.50;;
11962;SDS011;62678;52.130;5.584;2024-01-30T12:24:28;7.43;;;2.92;;
11962;SDS011;62678;52.130;5.584;2024-01-30T12:26:58;6.22;;;2.50;;
11962;SDS011;62678;52.130;5.584;2024-01-30T12:29:25;7.32;;;2.30;;
11962;SDS011;62678;52.130;5.584;2024-01-30T12:31:53;5.43;;;2.30;;
11962;SDS011;62678;52.130;5.584;2024-01-30T12:34:20;6.03;;;2.30;;
11962;SDS011;62678;52.130;5.584;2024-01-30T12:36:47;5.90;;;2.33;;
11962;SDS011;62678;52.130;5.584;2024-01-30T12:39:15;7.65;;;2.45;;
11962;SDS011;62678;52.130;5.584;2024-01-30T12:41:42;5.35;;;2.83;;
11962;SDS011;62678;52.130;5.584;2024-01-30T12:44:11;4.05;;;2.80;;
11962;SDS011;62678;52.130;5.584;2024-01-30T12:46:40;6.03;;;3.10;;
11962;SDS011;62678;52.130;5.584;2024-01-30T12:49:07;7.03;;;3.13;;
11962;SDS011;62678;52.130;5.584;2024-01-30T12:51:34;8.30;;;3.35;;
11962;SDS011;62678;52.130;5.584;2024-01-30T12:54:04;7.00;;;3.90;;
11962;SDS011;62678;52.130;5.584;2024-01-30T12:56:31;8.15;;;3.40;;
11962;SDS011;62678;52.130;5.584;2024-01-30T12:58:58;7.35;;;3.42;;
11962;SDS011;62678;52.130;5.584;2024-01-30T13:01:27;5.40;;;3.50;;
11962;SDS011;62678;52.130;5.584;2024-01-30T13:03:55;6.25;;;2.97;;
11962;SDS011;62678;52.130;5.584;2024-01-30T13:06:23;9.00;;;3.05;;
11962;SDS011;62678;52.130;5.584;2024-01-30T13:08:50;8.18;;;3.63;;
11962;SDS011;62678;52.130;5.584;2024-01-30T13:11:18;8.75;;;3.53;;
11962;SDS011;62678;52.130;5.584;2024-01-30T13:13:45;7.85;;;3.45;;
11962;SDS011;62678;52.130;5.584;2024-01-30T13:16:12;9.40;;;3.88;;
11962;SDS011;62678;52.130;5.584;2024-01-30T13:18:40;9.02;;;3.83;;
11962;SDS011;62678;52.130;5.584;2024-01-30T13:21:07;9.02;;;3.45;;
11962;SDS011;62678;52.130;5.584;2024-01-30T13:23:34;7.68;;;3.10;;
11962;SDS011;62678;52.130;5.584;2024-01-30T13:26:02;12.35;;;3.55;;
11962;SDS011;62678;52.130;5.584;2024-01-30T13:28:29;7.03;;;2.70;;
11962;SDS011;62678;52.130;5.584;2024-01-30T13:30:56;7.25;;;3.08;;
11962;SDS011;62678;52.130;5.584;2024-01-30T13:33:23;9.18;;;3.13;;
11962;SDS011;62678;52.130;5.584;2024-01-30T13:35:52;7.25;;;4.40;;
11962;SDS011;62678;52.130;5.584;2024-01-30T13:38:19;15.30;;;8.05;;
11962;SDS011;62678;52.130;5.584;2024-01-30T13:40:46;29.88;;;14.50;;
11962;SDS011;62678;52.130;5.584;2024-01-30T13:43:13;14.20;;;7.10;;
11962;SDS011;62678;52.130;5.584;2024-01-30T13:45:41;10.15;;;4.65;;
11962;SDS011;62678;52.130;5.584;2024-01-30T13:48:08;9.48;;;3.47;;
11962;SDS011;62678;52.130;5.584;2024-01-30T13:50:36;7.28;;;3.33;;
11962;SDS011;62678;52.130;5.584;2024-01-30T13:53:04;5.82;;;3.50;;
11962;SDS011;62678;52.130;5.584;2024-01-30T13:55:31;8.82;;;6.20;;
11962;SDS011;62678;52.130;5.584;2024-01-30T13:57:58;10.48;;;4.88;;
11962;SDS011;62678;52.130;5.584;2024-01-30T14:00:26;6.85;;;3.78;;
11962;SDS011;62678;52.130;5.584;2024-01-30T14:02:53;6.05;;;3.95;;
11962;SDS011;62678;52.130;5.584;2024-01-30T14:05:22;5.53;;;2.47;;
11962;SDS011;62678;52.130;5.584;2024-01-30T14:07:49;7.32;;;2.80;;
11962;SDS011;62678;52.130;5.584;2024-01-30T14:10:18;5.28;;;2.50;;
11962;SDS011;62678;52.130;5.584;2024-01-30T14:12:45;7.50;;;1.60;;
11962;SDS011;62678;52.130;5.584;2024-01-30T14:15:13;4.13;;;1.38;;
11962;SDS011;62678;52.130;5.584;2024-01-30T14:17:42;3.33;;;1.20;;
11962;SDS011;62678;52.130;5.584;2024-01-30T14:20:10;4.80;;;0.98;;
11962;SDS011;62678;52.130;5.584;2024-01-30T14:22:37;5.97;;;1.35;;
11962;SDS011;62678;52.130;5.584;2024-01-30T14:25:04;4.15;;;1.00;;
11962;SDS011;62678;52.130;5.584;2024-01-30T14:27:34;4.53;;;1.20;;
11962;SDS011;62678;52.130;5.584;2024-01-30T14:30:01;6.15;;;1.40;;